createdAt,value
2023-01-19T00:00:55.974Z,80.70
2023-01-19T00:03:22.906Z,80.30
2023-01-19T00:05:49.782Z,80.30
2023-01-19T00:08:17.431Z,80.30
2023-01-19T00:10:46.666Z,80.40
2023-01-19T00:13:14.668Z,80.30
2023-01-19T00:15:41.739Z,80.40
2023-01-19T00:18:10.585Z,80.60
2023-01-19T00:23:33.203Z,80.50
2023-01-19T00:25:59.982Z,80.60
2023-01-19T00:28:26.775Z,80.60
2023-01-19T00:30:53.601Z,80.70
2023-01-19T00:33:20.521Z,80.70
2023-01-19T00:35:52.815Z,80.90
2023-01-19T00:38:19.856Z,81.00
2023-01-19T00:40:47.424Z,81.10
2023-01-19T00:43:14.255Z,81.40
2023-01-19T00:45:42.073Z,81.20
2023-01-19T00:48:08.953Z,81.20
2023-01-19T00:50:35.747Z,81.20
2023-01-19T00:53:03.334Z,81.40
2023-01-19T00:55:32.745Z,81.30
2023-01-19T00:57:59.603Z,81.30
2023-01-19T01:00:26.798Z,81.60
2023-01-19T01:02:54.115Z,81.50
2023-01-19T01:05:22.699Z,81.50
2023-01-19T01:07:50.690Z,81.60
2023-01-19T01:10:23.479Z,81.60
2023-01-19T01:12:54.956Z,81.50
2023-01-19T01:15:26.430Z,81.50
2023-01-19T01:17:53.523Z,81.60
2023-01-19T01:20:27.021Z,81.40
2023-01-19T01:22:55.333Z,81.70
2023-01-19T01:25:24.344Z,81.70
2023-01-19T01:27:51.528Z,81.50
2023-01-19T01:30:19.624Z,81.40
2023-01-19T01:32:46.655Z,81.70
2023-01-19T01:35:14.353Z,81.80
2023-01-19T01:37:42.706Z,81.70
2023-01-19T01:40:13.854Z,81.90
2023-01-19T01:42:42.375Z,82.00
2023-01-19T01:45:29.907Z,81.80
2023-01-19T01:48:04.475Z,82.10
2023-01-19T01:50:34.082Z,82.20
2023-01-19T01:53:12.062Z,82.00
2023-01-19T01:55:46.973Z,81.70
2023-01-19T01:58:16.269Z,81.90
2023-01-19T02:01:01.634Z,81.80
2023-01-19T02:03:29.142Z,81.90
2023-01-19T02:06:00.390Z,81.70
2023-01-19T02:08:51.551Z,81.50
2023-01-19T02:11:37.305Z,81.30
2023-01-19T02:14:05.570Z,81.20
2023-01-19T02:16:32.807Z,81.40
2023-01-19T02:19:01.196Z,81.60
2023-01-19T02:21:53.034Z,81.80
2023-01-19T02:24:20.491Z,81.70
2023-01-19T02:26:48.946Z,81.40
2023-01-19T02:29:20.389Z,81.30
2023-01-19T02:31:47.948Z,81.30
2023-01-19T02:34:20.420Z,81.30
2023-01-19T02:37:00.175Z,81.10
2023-01-19T02:39:42.127Z,81.30
2023-01-19T02:42:32.297Z,81.30
2023-01-19T02:45:00.081Z,81.30
2023-01-19T02:47:27.086Z,81.50
2023-01-19T02:49:58.267Z,81.30
2023-01-19T02:52:26.720Z,81.30
2023-01-19T02:55:12.903Z,81.20
2023-01-19T02:57:58.502Z,81.30
2023-01-19T03:00:41.991Z,81.20
2023-01-19T03:03:32.780Z,81.10
2023-01-19T03:06:21.690Z,81.10
2023-01-19T03:08:56.101Z,81.10
2023-01-19T03:11:26.780Z,81.10
2023-01-19T03:14:09.019Z,81.00
2023-01-19T03:16:51.283Z,80.60
2023-01-19T03:19:22.844Z,80.50
2023-01-19T03:21:58.311Z,80.40
2023-01-19T03:24:29.520Z,80.60
2023-01-19T03:27:06.971Z,80.30
2023-01-19T03:29:37.055Z,80.30
2023-01-19T03:32:10.137Z,80.30
2023-01-19T03:34:39.170Z,80.30
2023-01-19T03:37:10.063Z,80.40
2023-01-19T03:39:37.257Z,80.50
2023-01-19T03:42:11.552Z,80.60
2023-01-19T03:44:40.373Z,81.20
2023-01-19T03:47:10.120Z,81.50
2023-01-19T03:49:39.074Z,81.60
2023-01-19T03:52:06.359Z,81.50
2023-01-19T03:54:33.182Z,82.00
2023-01-19T03:57:00.039Z,82.10
2023-01-19T03:59:26.929Z,82.40
2023-01-19T04:01:53.833Z,82.70
2023-01-19T04:04:20.693Z,83.20
2023-01-19T04:06:47.657Z,83.50
2023-01-19T04:09:14.468Z,83.80
2023-01-19T04:11:41.449Z,84.10
2023-01-19T04:14:08.266Z,84.40
2023-01-19T04:16:35.693Z,84.50
2023-01-19T04:19:02.519Z,84.70
2023-01-19T04:21:29.330Z,84.90
2023-01-19T04:23:56.167Z,85.10
2023-01-19T04:26:23.417Z,85.30
2023-01-19T04:28:50.263Z,85.50
2023-01-19T04:31:17.064Z,85.60
2023-01-19T04:33:43.830Z,85.70
2023-01-19T04:36:10.619Z,85.80
2023-01-19T04:38:37.488Z,85.70
2023-01-19T04:41:04.407Z,85.50
2023-01-19T04:43:31.479Z,85.50
2023-01-19T04:45:58.765Z,85.30
2023-01-19T04:48:25.689Z,85.40
2023-01-19T04:50:52.702Z,85.60
2023-01-19T04:53:19.641Z,85.50
2023-01-19T04:55:46.868Z,85.50
2023-01-19T04:58:13.947Z,85.50
2023-01-19T05:00:40.723Z,85.30
2023-01-19T05:03:07.638Z,85.20
2023-01-19T05:05:34.697Z,85.30
2023-01-19T05:08:01.559Z,85.70
2023-01-19T05:10:28.632Z,85.60
2023-01-19T05:12:55.637Z,85.50
2023-01-19T05:15:22.630Z,85.40
2023-01-19T05:17:49.526Z,85.40
2023-01-19T05:20:17.383Z,85.60
2023-01-19T05:22:49.789Z,85.60
2023-01-19T05:25:16.652Z,85.80
2023-01-19T05:27:44.569Z,85.80
2023-01-19T05:30:13.369Z,86.00
2023-01-19T05:32:40.225Z,85.70
2023-01-19T05:35:07.576Z,85.90
2023-01-19T05:37:34.319Z,85.90
2023-01-19T05:40:01.143Z,85.60
2023-01-19T05:42:27.898Z,85.40
2023-01-19T05:44:54.678Z,85.90
2023-01-19T05:47:21.453Z,85.90
2023-01-19T05:49:48.198Z,85.60
2023-01-19T05:52:14.971Z,85.40
2023-01-19T05:54:41.757Z,85.10
2023-01-19T05:57:08.800Z,84.70
2023-01-19T05:59:35.551Z,84.70
2023-01-19T06:02:02.801Z,84.90
2023-01-19T06:04:29.665Z,85.10
2023-01-19T06:06:56.491Z,85.00
2023-01-19T06:09:23.329Z,84.80
2023-01-19T06:11:50.408Z,84.70
2023-01-19T06:14:17.219Z,84.70
2023-01-19T06:16:44.093Z,85.00
2023-01-19T06:19:11.095Z,85.50
2023-01-19T06:21:38.268Z,84.90
2023-01-19T06:24:05.540Z,84.80
2023-01-19T06:26:32.336Z,84.70
2023-01-19T06:28:59.210Z,84.90
2023-01-19T06:31:26.065Z,85.00
2023-01-19T06:33:52.898Z,85.50
2023-01-19T06:36:19.742Z,85.80
2023-01-19T06:38:46.681Z,85.80
2023-01-19T06:41:13.493Z,85.80
2023-01-19T06:43:40.359Z,85.70
2023-01-19T06:46:07.232Z,85.70
2023-01-19T06:48:34.058Z,85.50
2023-01-19T06:51:00.795Z,85.10
2023-01-19T06:53:29.109Z,85.20
2023-01-19T06:56:03.168Z,85.10
2023-01-19T06:58:31.219Z,84.90
2023-01-19T07:01:07.742Z,84.90
2023-01-19T07:03:35.862Z,84.30
2023-01-19T07:06:03.088Z,84.00
2023-01-19T07:08:30.353Z,84.50
2023-01-19T07:11:25.674Z,84.20
2023-01-19T07:13:51.669Z,84.10
2023-01-19T07:16:18.934Z,83.70
2023-01-19T07:18:48.807Z,83.70
2023-01-19T07:21:16.073Z,83.60
2023-01-19T07:23:43.445Z,83.40
2023-01-19T07:26:10.772Z,83.70
2023-01-19T07:28:37.575Z,83.80
2023-01-19T07:31:05.230Z,84.20
2023-01-19T07:33:32.301Z,84.70
2023-01-19T07:35:59.255Z,84.80
2023-01-19T07:38:26.181Z,84.60
2023-01-19T07:40:59.841Z,84.30
2023-01-19T07:43:26.645Z,83.90
2023-01-19T07:45:57.137Z,83.80
2023-01-19T07:48:24.166Z,83.70
2023-01-19T07:50:51.287Z,83.90
2023-01-19T07:53:18.465Z,83.70
2023-01-19T07:55:45.289Z,83.60
2023-01-19T07:58:12.110Z,83.50
2023-01-19T08:00:39.668Z,83.60
2023-01-19T08:03:06.540Z,83.90
2023-01-19T08:05:33.911Z,84.10
2023-01-19T08:08:00.715Z,84.30
2023-01-19T08:10:29.153Z,84.30
2023-01-19T08:12:57.555Z,84.50
2023-01-19T08:15:25.133Z,84.40
2023-01-19T08:17:58.713Z,84.50
2023-01-19T08:20:26.009Z,84.30
2023-01-19T08:23:00.004Z,84.10
2023-01-19T08:25:38.042Z,84.20
2023-01-19T08:28:05.412Z,84.20
2023-01-19T08:30:32.990Z,83.80
2023-01-19T08:33:08.112Z,84.00
2023-01-19T08:35:39.742Z,84.30
2023-01-19T08:38:07.744Z,84.10
2023-01-19T08:40:38.266Z,83.80
2023-01-19T08:43:08.314Z,84.30
2023-01-19T08:45:36.643Z,83.80
2023-01-19T08:48:04.592Z,83.80
2023-01-19T08:50:32.892Z,83.60
2023-01-19T08:53:01.772Z,83.60
2023-01-19T08:55:30.000Z,83.80
2023-01-19T08:58:00.045Z,84.20
2023-01-19T09:00:27.652Z,83.70
2023-01-19T09:02:55.047Z,84.10
2023-01-19T09:05:22.353Z,83.90
2023-01-19T09:07:49.506Z,83.20
2023-01-19T09:10:16.762Z,82.60
2023-01-19T09:12:44.991Z,82.80
2023-01-19T09:15:14.188Z,83.30
2023-01-19T09:17:44.292Z,83.40
2023-01-19T09:20:11.379Z,83.50
2023-01-19T09:22:39.714Z,83.50
2023-01-19T09:25:07.090Z,84.00
2023-01-19T09:27:34.087Z,84.10
2023-01-19T09:30:00.809Z,83.60
2023-01-19T09:32:27.548Z,82.70
2023-01-19T09:34:55.099Z,82.60
2023-01-19T09:37:21.839Z,82.30
2023-01-19T09:39:48.624Z,82.20
2023-01-19T09:42:30.532Z,82.70
2023-01-19T09:44:57.285Z,82.80
2023-01-19T09:47:26.471Z,83.10
2023-01-19T09:50:03.053Z,83.20
2023-01-19T09:52:32.777Z,82.90
2023-01-19T09:54:59.498Z,82.10
2023-01-19T09:57:27.295Z,82.40
2023-01-19T09:59:59.501Z,82.80
2023-01-19T10:02:45.324Z,82.80
2023-01-19T10:05:24.562Z,82.40
2023-01-19T10:08:03.726Z,82.40
2023-01-19T10:10:31.803Z,82.30
2023-01-19T10:13:17.375Z,82.10
2023-01-19T10:15:59.443Z,81.90
2023-01-19T10:18:31.498Z,82.10
2023-01-19T10:21:05.491Z,82.40
2023-01-19T10:23:35.676Z,82.30
2023-01-19T10:26:06.582Z,81.90
2023-01-19T10:28:33.978Z,81.70
2023-01-19T10:31:00.980Z,82.50
2023-01-19T10:33:28.298Z,83.20
2023-01-19T10:35:55.125Z,82.20
2023-01-19T10:38:22.307Z,80.90
2023-01-19T10:41:05.059Z,79.80
2023-01-19T10:43:34.711Z,78.70
2023-01-19T10:46:06.529Z,79.20
2023-01-19T10:48:42.096Z,79.60
2023-01-19T10:51:11.056Z,80.10
2023-01-19T10:53:38.198Z,80.30
2023-01-19T10:56:17.452Z,80.80
2023-01-19T10:58:44.263Z,80.00
2023-01-19T11:01:23.778Z,79.70
2023-01-19T11:03:51.761Z,79.70
2023-01-19T11:06:21.931Z,79.00
2023-01-19T11:08:54.001Z,79.10
2023-01-19T11:11:23.557Z,79.60
2023-01-19T11:14:11.730Z,79.90
2023-01-19T11:16:40.073Z,79.70
2023-01-19T11:19:19.211Z,79.30
2023-01-19T11:21:46.017Z,79.20
2023-01-19T11:24:14.809Z,79.40
2023-01-19T11:26:43.722Z,80.10
2023-01-19T11:29:16.435Z,80.40
2023-01-19T11:31:43.949Z,80.30
2023-01-19T11:34:29.501Z,80.50
2023-01-19T11:36:59.350Z,81.00
2023-01-19T11:39:34.447Z,80.30
2023-01-19T11:42:02.664Z,80.90
2023-01-19T11:44:32.318Z,80.60
2023-01-19T11:47:12.729Z,80.70
2023-01-19T11:49:58.112Z,81.20
2023-01-19T11:52:44.001Z,80.70
2023-01-19T11:55:31.498Z,80.00
2023-01-19T11:57:59.653Z,80.00
2023-01-19T12:00:37.766Z,80.00
2023-01-19T12:03:43.554Z,80.50
2023-01-19T12:06:16.014Z,80.50
2023-01-19T12:08:50.255Z,79.70
2023-01-19T12:11:26.050Z,80.40
2023-01-19T12:13:55.965Z,80.90
2023-01-19T12:16:36.467Z,80.60
2023-01-19T12:19:18.974Z,79.80
2023-01-19T12:21:49.652Z,80.00
2023-01-19T12:24:24.087Z,79.60
2023-01-19T12:26:57.693Z,79.50
2023-01-19T12:29:28.985Z,79.70
2023-01-19T12:32:14.297Z,79.80
2023-01-19T12:34:49.713Z,80.30
2023-01-19T12:37:34.581Z,80.70
2023-01-19T12:40:17.418Z,80.60
2023-01-19T12:42:51.496Z,79.80
2023-01-19T12:45:25.872Z,78.30
2023-01-19T12:47:53.602Z,78.50
2023-01-19T12:50:24.207Z,79.20
2023-01-19T12:53:02.152Z,79.20
2023-01-19T12:55:32.892Z,79.10
2023-01-19T12:58:13.612Z,79.50
2023-01-19T13:00:43.632Z,79.70
2023-01-19T13:03:16.701Z,79.60
2023-01-19T13:05:43.985Z,78.70
2023-01-19T13:08:16.495Z,79.20
2023-01-19T13:11:10.540Z,78.90
2023-01-19T13:13:39.260Z,78.30
2023-01-19T13:16:19.019Z,77.50
2023-01-19T13:18:45.980Z,77.90
2023-01-19T13:21:13.213Z,77.80
2023-01-19T13:23:52.202Z,77.00
2023-01-19T13:26:25.640Z,77.20
2023-01-19T13:28:59.298Z,77.50
2023-01-19T13:31:34.977Z,77.30
2023-01-19T13:34:03.856Z,75.10
2023-01-19T13:36:41.487Z,72.20
2023-01-19T13:39:25.424Z,71.20
2023-01-19T13:42:00.148Z,70.60
2023-01-19T13:44:41.438Z,70.80
2023-01-19T13:47:18.072Z,71.70
2023-01-19T13:49:48.754Z,72.10
2023-01-19T13:52:29.420Z,73.10
2023-01-19T13:55:02.790Z,73.30
2023-01-19T13:57:41.624Z,73.30
2023-01-19T14:00:14.738Z,72.80
2023-01-19T14:02:57.587Z,73.20
2023-01-19T14:05:33.229Z,73.50
2023-01-19T14:08:13.392Z,73.30
2023-01-19T14:11:02.334Z,73.40
2023-01-19T14:13:35.276Z,73.90
2023-01-19T14:16:15.346Z,73.60
2023-01-19T14:18:42.667Z,73.20
2023-01-19T14:21:16.272Z,72.80
2023-01-19T14:23:50.512Z,73.50
2023-01-19T14:26:53.997Z,73.70
2023-01-19T14:29:33.093Z,73.30
2023-01-19T14:32:17.913Z,73.40
2023-01-19T14:35:04.563Z,74.00
2023-01-19T14:37:34.745Z,73.70
2023-01-19T14:40:11.013Z,73.30
2023-01-19T14:42:45.559Z,72.00
2023-01-19T14:45:33.544Z,72.30
2023-01-19T14:48:17.804Z,72.40
2023-01-19T14:51:02.333Z,71.90
2023-01-19T14:53:34.995Z,72.00
2023-01-19T14:56:06.596Z,72.80
2023-01-19T14:58:35.202Z,72.80
2023-01-19T15:01:02.764Z,74.00
2023-01-19T15:03:44.872Z,73.60
2023-01-19T15:06:17.921Z,73.10
2023-01-19T15:08:46.119Z,73.60
2023-01-19T15:11:18.419Z,74.00
2023-01-19T15:13:45.238Z,73.90
2023-01-19T15:16:12.171Z,74.60
2023-01-19T15:18:38.980Z,75.40
2023-01-19T15:21:05.879Z,74.60
2023-01-19T15:23:32.891Z,74.40
2023-01-19T15:26:00.424Z,74.50
2023-01-19T15:28:27.309Z,73.70
2023-01-19T15:30:54.264Z,73.70
2023-01-19T15:33:22.813Z,74.30
2023-01-19T15:35:49.815Z,74.60
2023-01-19T15:38:16.847Z,75.70
2023-01-19T15:40:43.836Z,76.40
2023-01-19T15:43:11.284Z,75.70
2023-01-19T15:45:50.146Z,76.00
2023-01-19T15:48:17.295Z,76.00
2023-01-19T15:50:45.069Z,77.10
2023-01-19T15:53:17.117Z,76.20
2023-01-19T15:55:44.853Z,74.80
2023-01-19T15:58:14.097Z,74.20
2023-01-19T16:00:41.706Z,74.80
2023-01-19T16:03:10.239Z,75.50
2023-01-19T16:05:42.885Z,75.60
2023-01-19T16:08:11.440Z,75.70
2023-01-19T16:10:38.258Z,75.80
2023-01-19T16:13:05.154Z,76.00
2023-01-19T16:15:36.284Z,76.00
2023-01-19T16:18:04.334Z,76.00
2023-01-19T16:20:31.547Z,75.90
2023-01-19T16:23:06.228Z,75.80
2023-01-19T16:25:40.849Z,76.20
2023-01-19T16:28:08.402Z,76.60
2023-01-19T16:30:35.460Z,77.00
2023-01-19T16:33:02.352Z,77.00
2023-01-19T16:35:29.110Z,77.00
2023-01-19T16:37:55.905Z,77.10
2023-01-19T16:40:22.661Z,77.20
2023-01-19T16:42:49.432Z,77.70
2023-01-19T16:45:16.355Z,77.70
2023-01-19T16:47:43.546Z,78.10
2023-01-19T16:50:11.887Z,78.30
2023-01-19T16:52:39.056Z,78.40
2023-01-19T16:55:09.403Z,78.70
2023-01-19T16:57:38.916Z,78.20
2023-01-19T17:00:07.890Z,78.40
2023-01-19T17:02:34.729Z,78.40
2023-01-19T17:05:01.582Z,77.50
2023-01-19T17:07:28.546Z,77.80
2023-01-19T17:09:56.092Z,77.70
2023-01-19T17:12:23.067Z,77.50
2023-01-19T17:14:49.967Z,77.60
2023-01-19T17:17:16.803Z,78.00
2023-01-19T17:19:45.119Z,78.10
2023-01-19T17:22:17.314Z,77.90
2023-01-19T17:24:46.940Z,78.10
2023-01-19T17:27:13.790Z,78.00
2023-01-19T17:29:40.826Z,78.10
2023-01-19T17:32:07.675Z,78.00
2023-01-19T17:34:34.688Z,78.10
2023-01-19T17:37:03.338Z,78.30
2023-01-19T17:39:30.527Z,78.40
2023-01-19T17:41:57.985Z,78.60
2023-01-19T17:44:25.102Z,78.60
2023-01-19T17:46:51.997Z,79.10
2023-01-19T17:49:18.809Z,79.30
2023-01-19T17:51:45.687Z,79.40
2023-01-19T17:54:14.045Z,79.60
2023-01-19T17:56:41.385Z,79.80
2023-01-19T17:59:08.580Z,79.80
2023-01-19T18:01:39.769Z,80.00
2023-01-19T18:04:08.189Z,80.30
2023-01-19T18:06:35.119Z,80.60
2023-01-19T18:09:02.381Z,80.60
2023-01-19T18:11:29.339Z,80.60
2023-01-19T18:13:56.257Z,80.70
2023-01-19T18:16:28.978Z,80.70
2023-01-19T18:18:58.222Z,80.60
2023-01-19T18:21:28.171Z,80.60
2023-01-19T18:24:01.233Z,80.60
2023-01-19T18:26:28.702Z,80.50
2023-01-19T18:28:57.096Z,80.40
2023-01-19T18:31:24.127Z,80.30
2023-01-19T18:33:50.991Z,80.30
2023-01-19T18:36:18.363Z,80.30
2023-01-19T18:38:45.251Z,80.40
2023-01-19T18:41:14.749Z,80.50
2023-01-19T18:43:41.830Z,80.50
2023-01-19T18:46:09.236Z,80.70
2023-01-19T18:48:37.419Z,80.70
2023-01-19T18:51:09.545Z,80.80
2023-01-19T18:53:36.450Z,80.80
2023-01-19T18:56:04.283Z,80.80
2023-01-19T18:58:32.579Z,80.80
2023-01-19T19:01:02.883Z,80.70
2023-01-19T19:03:32.719Z,80.80
2023-01-19T19:06:03.644Z,80.80
2023-01-19T19:08:30.955Z,80.80
2023-01-19T19:10:59.977Z,80.80
2023-01-19T19:13:27.335Z,80.80
2023-01-19T19:15:57.038Z,81.00
2023-01-19T19:18:24.164Z,81.10
2023-01-19T19:20:51.413Z,81.20
2023-01-19T19:23:18.547Z,81.20
2023-01-19T19:25:47.875Z,81.20
2023-01-19T19:28:14.936Z,81.20
2023-01-19T19:30:41.931Z,81.40
2023-01-19T19:33:08.946Z,81.60
2023-01-19T19:35:35.955Z,81.60
2023-01-19T19:38:03.314Z,81.60
2023-01-19T19:40:30.637Z,81.70
2023-01-19T19:42:58.862Z,81.70
2023-01-19T19:45:29.332Z,81.60
2023-01-19T19:48:02.368Z,81.70
2023-01-19T19:50:29.353Z,81.80
2023-01-19T19:52:59.025Z,81.80
2023-01-19T19:55:28.247Z,81.80
2023-01-19T19:57:55.252Z,81.80
2023-01-19T20:00:25.198Z,81.80
2023-01-19T20:02:52.292Z,81.80
2023-01-19T20:05:19.725Z,81.70
2023-01-19T20:07:48.221Z,81.80
2023-01-19T20:10:15.717Z,81.90
2023-01-19T20:12:42.590Z,81.90
2023-01-19T20:15:10.598Z,81.90
2023-01-19T20:17:40.280Z,82.00
2023-01-19T20:20:07.921Z,82.00
2023-01-19T20:22:34.774Z,82.10
2023-01-19T20:25:01.692Z,82.10
2023-01-19T20:27:28.450Z,82.20
2023-01-19T20:29:58.089Z,82.20
2023-01-19T20:32:40.645Z,82.30
2023-01-19T20:35:07.446Z,82.40
2023-01-19T20:37:34.516Z,82.40
2023-01-19T20:40:03.876Z,82.40
2023-01-19T20:42:31.293Z,82.40
2023-01-19T20:44:58.081Z,82.50
2023-01-19T20:47:25.979Z,82.50
2023-01-19T20:49:52.722Z,82.50
2023-01-19T20:52:21.105Z,82.50
2023-01-19T20:54:47.875Z,82.50
2023-01-19T20:57:14.644Z,82.60
2023-01-19T20:59:41.480Z,82.60
2023-01-19T21:02:14.288Z,83.10
2023-01-19T21:04:41.445Z,83.60
2023-01-19T21:07:09.055Z,83.90
2023-01-19T21:09:38.130Z,83.60
2023-01-19T21:12:07.448Z,83.50
2023-01-19T21:14:34.363Z,83.50
2023-01-19T21:17:01.530Z,83.50
2023-01-19T21:19:31.179Z,83.40
2023-01-19T21:21:58.169Z,83.60
2023-01-19T21:24:25.239Z,83.60
2023-01-19T21:26:52.241Z,83.60
2023-01-19T21:29:19.147Z,83.80
2023-01-19T21:31:47.978Z,83.80
2023-01-19T21:34:14.811Z,83.90
2023-01-19T21:36:42.185Z,84.00
2023-01-19T21:39:09.512Z,84.00
2023-01-19T21:41:38.068Z,84.00
2023-01-19T21:44:05.039Z,84.00
2023-01-19T21:46:33.471Z,84.10
2023-01-19T21:49:02.931Z,84.20
2023-01-19T21:51:34.864Z,84.20
2023-01-19T21:54:05.902Z,84.60
2023-01-19T21:56:33.298Z,84.40
2023-01-19T21:59:02.873Z,84.30
2023-01-19T22:01:33.766Z,84.30
2023-01-19T22:04:00.901Z,84.50
2023-01-19T22:06:28.362Z,84.40
2023-01-19T22:08:57.877Z,84.50
2023-01-19T22:11:25.068Z,84.60
2023-01-19T22:13:52.029Z,84.50
2023-01-19T22:16:20.746Z,84.30
2023-01-19T22:18:57.623Z,84.60
2023-01-19T22:21:26.709Z,84.60
2023-01-19T22:23:56.197Z,84.40
2023-01-19T22:26:23.578Z,84.20
2023-01-19T22:28:54.011Z,84.20
2023-01-19T22:31:20.925Z,84.20
2023-01-19T22:33:49.137Z,84.40
2023-01-19T22:36:19.855Z,84.30
2023-01-19T22:38:51.762Z,84.50
2023-01-19T22:41:20.293Z,84.50
2023-01-19T22:43:48.360Z,84.40
2023-01-19T22:46:19.863Z,84.60
2023-01-19T22:48:48.110Z,84.70
2023-01-19T22:51:16.455Z,84.70
2023-01-19T22:53:43.413Z,84.50
2023-01-19T22:56:16.001Z,84.60
2023-01-19T22:58:46.479Z,84.80
2023-01-19T23:01:24.469Z,84.90
2023-01-19T23:03:51.807Z,84.70
2023-01-19T23:06:23.699Z,84.60
2023-01-19T23:08:51.142Z,84.60
2023-01-19T23:11:23.315Z,84.60
2023-01-19T23:13:50.937Z,84.60
2023-01-19T23:16:19.186Z,84.70
2023-01-19T23:18:47.098Z,84.60
2023-01-19T23:21:15.306Z,84.50
2023-01-19T23:23:43.196Z,84.60
2023-01-19T23:26:14.018Z,84.60
2023-01-19T23:28:41.325Z,84.80
2023-01-19T23:31:19.002Z,84.70
2023-01-19T23:33:45.871Z,84.80
2023-01-19T23:36:13.486Z,84.60
2023-01-19T23:38:40.841Z,84.50
2023-01-19T23:41:08.284Z,84.30
2023-01-19T23:43:35.329Z,84.30
2023-01-19T23:46:07.115Z,84.20
2023-01-19T23:48:35.116Z,84.10
2023-01-19T23:51:17.579Z,84.10
2023-01-19T23:53:44.439Z,84.20
2023-01-19T23:56:17.588Z,84.10
2023-01-19T23:58:46.115Z,83.90
